• Join FlightAware (Why Join?)
  • Login
  • US Flag 
04:23AM EST


 

Airport Tracker/Info


-or-


 

Live Flight TrackerFlight Track Log ✈ C-GIWP ✈ 02-Sep-2013 ✈ CYUL - CYKZ

Flight Track Log - Related Links

Times and Time Zones

All times are in EDT time to prevent confusion due to time zone crossing. See the C-GIWP flight status page for this flight to view local times or setup timezone preferences in your user account.

Time Position Orientation Groundspeed Altitude Reporting Facility
EDT Latitude Longitude Course Direction KTS MPH feet Rate Location/Type
03:17PM 45.4500 -73.7167 35° Northeast 30 35 100  Level Montreal Center
03:19PM 45.4667 -73.7000 35° Northeast 100 115 700 360 Climbing Montreal Center
03:20PM 45.5000 -73.7500 314° West 130 150 1,300 540 Climbing Montreal Center
03:21PM 45.5333 -73.7500 360° North 130 150 1,800 540 Climbing Montreal Center
03:22PM 45.5667 -73.7833 325° Northwest 130 150 2,400 600 Climbing Montreal Center
03:23PM 45.5667 -73.8333 270° West 130 150 3,000 600 Climbing Montreal Center
03:24PM 45.5833 -73.8833 295° West 130 150 3,600 540 Climbing Montreal Center
03:25PM 45.5667 -73.9333 245° Southwest 130 150 4,100 540 Climbing Montreal Center
03:26PM 45.5667 -73.9833 270° West 130 150 4,700 420 Climbing Montreal Center
03:27PM 45.5500 -74.0333 245° Southwest 130 150 5,000 360 Climbing Montreal Center
03:29PM 45.5500 -74.1500 270° West 140 161 5,900 420 Climbing Montreal Center
03:30PM 45.5500 -74.2000 270° West 140 161 6,400 480 Climbing Montreal Center
03:31PM 45.5333 -74.2500 245° Southwest 140 161 6,900 420 Climbing Montreal Center
03:33PM 45.5167 -74.3667 259° West 140 161 7,800 300 Climbing Montreal Center
03:34PM 45.5167 -74.4167 270° West 150 173 7,900  Climbing Montreal Center
03:35PM 45.5000 -74.4833 250° West 160 184 7,900  Level Montreal Center
03:36PM 45.4667 -74.5333 226° Southwest 160 184 7,900  Level Montreal Center
03:37PM 45.4500 -74.5833 245° Southwest 150 173 7,900  Level Montreal Center
03:38PM 45.4333 -74.6333 245° Southwest 150 173 7,900  Level Montreal Center
03:39PM 45.4000 -74.7000 235° Southwest 150 173 7,900  Level Montreal Center
03:40PM 45.3833 -74.7500 245° Southwest 150 173 7,900  Level Montreal Center
03:41PM 45.3500 -74.8000 227° Southwest 150 173 7,900  Level Montreal Center
03:42PM 45.3333 -74.8500 245° Southwest 150 173 7,900  Level Montreal Center
03:43PM 45.3167 -74.9000 245° Southwest 150 173 7,900  Level Montreal Center
03:44PM 45.2833 -74.9500 227° Southwest 150 173 8,000  Climbing Montreal Center
03:45PM 45.2667 -75.0000 245° Southwest 160 184 8,000  Level Montreal Center
03:46PM 45.2500 -75.0333 235° Southwest 150 173 8,000  Level Montreal Center
03:47PM 45.2167 -75.0833 227° Southwest 150 173 8,000  Level Montreal Center
03:48PM 45.2000 -75.1667 254° West 150 173 8,000  Level Montreal Center
03:49PM 45.1833 -75.2000 235° Southwest 150 173 8,000  Level Montreal Center
03:50PM 45.1500 -75.2500 227° Southwest 150 173 8,000  Level Montreal Center
03:51PM 45.1333 -75.3000 245° Southwest 150 173 8,000  Level Montreal Center
03:52PM 45.1167 -75.3500 245° Southwest 150 173 8,000  Level Montreal Center
03:53PM 45.1000 -75.4000 245° Southwest 150 173 8,000  Level Montreal Center
03:54PM 45.0667 -75.4500 227° Southwest 150 173 8,000  Level Montreal Center
03:55PM 45.0167 -75.4667 193° South 150 173 8,000  Level Montreal Center
03:56PM 44.9833 -75.5000 215° Southwest 150 173 8,000  Level Montreal Center
03:57PM 44.9333 -75.5000 180° South 150 173 8,000  Level Montreal Center
03:58PM 44.9000 -75.5000 180° South 150 173 8,000  Level Montreal Center
03:59PM 44.8500 -75.4667 155° Southeast 150 173 8,000  Level Montreal Center
04:00PM 44.8167 -75.5000 215° Southwest 150 173 8,000  Level Montreal Center
04:01PM 44.7833 -75.5167 200° South 150 173 8,000  Level Montreal Center
04:02PM 44.7500 -75.5667 227° Southwest 150 173 8,000  Level Montreal Center
04:03PM 44.7167 -75.5833 200° South 150 173 8,000  Level Montreal Center
04:04PM 44.6833 -75.6167 215° Southwest 150 173 8,000  Level Montreal Center
04:05PM 44.6500 -75.6667 227° Southwest 140 161 8,000  Level Montreal Center
04:06PM 44.6167 -75.7167 227° Southwest 150 173 8,000  Level Montreal Center
04:07PM 44.5833 -75.7333 200° South 150 173 8,000  Level Montreal Center
04:08PM 44.5500 -75.7833 227° Southwest 150 173 8,000  Level Montreal Center
04:09PM 44.5333 -75.8333 245° Southwest 150 173 8,000  Level Montreal Center
04:10PM 44.5167 -75.8667 235° Southwest 140 161 8,000  Level Montreal Center
04:11PM 44.5000 -75.9167 245° Southwest 140 161 8,000  Level Montreal Center
04:12PM 44.4833 -75.9667 245° Southwest 150 173 8,000  Level Montreal Center
04:13PM 44.4667 -76.0333 251° West 150 173 8,000  Level Montreal Center
04:14PM 44.4333 -76.0667 216° Southwest 150 173 8,000  Level Montreal Center
04:15PM 44.4167 -76.1167 245° Southwest 140 161 8,000 120 Level Montreal Center
04:16PM 44.4333 -76.1500 305° West 120 138 8,300 60 Climbing Montreal Center
04:17PM 44.4500 -76.2000 295° West 140 161 8,200 -60 Descending Montreal Center
04:18PM 44.4667 -76.2500 295° West 140 161 8,200  Level Montreal Center
04:19PM 44.4500 -76.3000 245° Southwest 140 161 8,200  Level Montreal Center
04:20PM 44.4333 -76.3667 251° West 140 161 8,200 -60 Level Montreal Center
04:21PM 44.4333 -76.4167 270° West 150 173 8,100 -60 Descending Montreal Center
04:22PM 44.4333 -76.4833 270° West 140 161 8,100  Level Montreal Center
04:23PM 44.4333 -76.5333 270° West 150 173 8,100 -60 Level Montreal Center
04:24PM 44.4167 -76.5833 245° Southwest 140 161 8,000  Descending Montreal Center
04:26PM 44.3833 -76.6667 241° Southwest 140 161 8,100  Climbing Montreal Center
04:27PM 44.3833 -76.7333 270° West 140 161 8,000 -60 Descending Montreal Center
04:28PM 44.3667 -76.7833 245° Southwest 140 161 8,000  Level Montreal Center
04:29PM 44.3500 -76.8333 245° Southwest 150 173 8,000  Level Montreal Center
04:30PM 44.3333 -76.9000 251° West 150 173 8,000  Level Montreal Center
04:31PM 44.3167 -76.9500 245° Southwest 150 173 8,000  Level Montreal Center
04:32PM 44.3000 -77.0000 245° Southwest 150 173 8,000  Level Montreal Center
04:33PM 44.2833 -77.0500 245° Southwest 150 173 8,100  Climbing Montreal Center
04:34PM 44.2833 -77.1167 270° West 150 173 8,000 -60 Descending Montreal Center
04:35PM 44.2500 -77.1667 227° Southwest 140 161 8,000  Level Montreal Center
04:38PM 44.2167 -77.3500 256° West 160 184 8,000  Level Montreal Center
04:39PM 44.2000 -77.3833 235° Southwest 150 173 8,100  Climbing Montreal Center
04:40PM 44.2000 -77.4333 270° West 140 161 8,000 -60 Descending Montreal Center
04:41PM 44.1833 -77.4833 245° Southwest 140 161 8,000  Level Montreal Center
04:42PM 44.1833 -77.5500 270° West 140 161 8,000  Level Montreal Center
04:43PM 44.1667 -77.6000 245° Southwest 140 161 8,000  Level Montreal Center
04:44PM 44.1667 -77.6500 270° West 140 161 8,100  Climbing Montreal Center
04:45PM 44.1667 -77.7167 270° West 140 161 8,000 -60 Descending Montreal Center
04:46PM 44.1667 -77.7667 270° West 140 161 8,000  Level Montreal Center
04:47PM 44.1667 -77.8333 270° West 140 161 8,000  Level Montreal Center
04:48PM 44.1667 -77.8833 270° West 140 161 8,000  Level Montreal Center
04:49PM 44.1667 -77.9333 270° West 140 161 8,000  Level Montreal Center
04:50PM 44.1667 -78.0000 270° West 150 173 8,000  Level Montreal Center
04:51PM 44.1667 -78.0500 270° West 150 173 8,000  Level Montreal Center
04:52PM 44.1667 -78.1167 270° West 150 173 8,000 -60 Level Montreal Center
04:53PM 44.1667 -78.1667 270° West 150 173 7,900 -60 Descending Montreal Center
04:54PM 44.1667 -78.2333 270° West 150 173 7,900  Level Montreal Center
04:55PM 44.1667 -78.2833 270° West 140 161 8,000  Climbing Montreal Center
04:56PM 44.1667 -78.3167 270° West 150 173 7,900  Descending Montreal Center
04:57PM 44.1667 -78.4000 270° West 140 161 8,000  Climbing Montreal Center
04:58PM 44.1667 -78.4333 270° West 140 161 8,000 -240 Level Montreal Center
04:59PM 44.1500 -78.5167 254° West 150 173 7,600 -480 Descending Montreal Center
05:00PM 44.1500 -78.5500 270° West 160 184 7,100 -480 Descending Montreal Center
05:01PM 44.1333 -78.6333 254° West 170 196 6,700 -480 Descending Montreal Center
05:02PM 44.1333 -78.7000 270° West 170 196 6,200 -480 Descending Montreal Center
05:03PM 44.1333 -78.7667 270° West 170 196 5,800 -420 Descending Montreal Center
05:04PM 44.1333 -78.8333 270° West 170 196 5,400 -420 Descending Montreal Center
05:05PM 44.1333 -78.8833 270° West 160 184 5,000 -420 Descending Montreal Center
05:06PM 44.1333 -78.9500 270° West 160 184 4,600 -660 Descending Montreal Center
05:07PM 44.1000 -79.0000 227° Southwest 170 196 3,700 -900 Descending Montreal Center
05:08PM 44.0500 -79.0167 193° South 190 219 2,900 -360 Descending Montreal Center
05:09PM 44.0167 -79.0667 227° Southwest 170 196 3,000  Climbing Montreal Center
05:10PM 43.9667 -79.1000 206° Southwest 160 184 3,000 -300 Level Montreal Center
05:11PM 43.9333 -79.1000 180° South 170 196 2,400 -720 Descending Toronto Center
05:12PM 43.8833 -79.1500 216° Southwest 190 219 1,800 -120 Descending Toronto Center
05:13PM 43.8500 -79.1667 200° South 160 184 2,200 -60 Climbing Toronto Center
05:14PM 43.8333 -79.2167 245° Southwest 130 150 1,700 -360 Descending Toronto Center
05:15PM 43.8333 -79.2667 270° West 120 138 1,500 -240 Descending Toronto Center
05:16PM 43.8333 -79.3167 270° West 120 138 1,300 -300 Descending Toronto Center
05:17PM 43.8333 -79.3333 270° West 120 138 1,000 -300 Descending Toronto Center